Time;durP1;ratioP1;P1;durP2;ratioP2;P2;SDS_P1;SDS_P2;PMS_P1;PMS_P2;Temp;Humidity;BMP_temperature;BMP_pressure;BME280_temperature;BME280_humidity;BME280_pressure;Samples;Min_cycle;Max_cycle;Signal;HPM_P1;HPM_P2
2022/05/08 00:01:37;;;;;;;8.93;5.50;;;18.10;84.20;;;;;;5012796;28;20057;-63
2022/05/08 00:04:03;;;;;;;9.80;5.65;;;18.00;84.40;;;;;;5012989;28;20026;-63
2022/05/08 00:06:29;;;;;;;6.05;5.05;;;18.00;84.50;;;;;;5012900;28;20537;-64
2022/05/08 00:08:55;;;;;;;10.43;5.72;;;18.00;84.40;;;;;;5012763;28;20064;-65
2022/05/08 00:11:20;;;;;;;6.75;5.18;;;18.00;84.50;;;;;;5012915;28;20026;-65
2022/05/08 00:13:47;;;;;;;8.43;5.63;;;18.00;84.40;;;;;;5012696;28;20028;-65
2022/05/08 00:16:13;;;;;;;9.93;5.57;;;17.90;84.50;;;;;;5012816;28;20080;-65
2022/05/08 00:18:39;;;;;;;8.10;5.78;;;17.90;84.70;;;;;;5012638;28;20022;-66
2022/05/08 00:21:06;;;;;;;6.50;5.68;;;17.90;84.90;;;;;;5012667;28;20026;-64
2022/05/08 00:23:32;;;;;;;8.18;5.40;;;17.90;84.90;;;;;;5012939;28;20447;-65
2022/05/08 00:25:58;;;;;;;7.45;5.80;;;17.90;84.90;;;;;;5012295;28;20514;-65
2022/05/08 00:28:23;;;;;;;10.13;5.47;;;17.90;85.00;;;;;;5012581;28;20073;-65
2022/05/08 00:30:49;;;;;;;7.88;6.20;;;17.90;85.10;;;;;;5012630;28;20022;-65
2022/05/08 00:33:15;;;;;;;6.78;5.78;;;17.90;85.10;;;;;;5015742;28;20105;-64
2022/05/08 00:35:41;;;;;;;10.80;6.28;;;17.90;85.00;;;;;;5016256;28;20022;-65
2022/05/08 00:38:08;;;;;;;9.88;6.30;;;17.80;85.20;;;;;;5016122;28;20022;-65
2022/05/08 00:40:35;;;;;;;9.38;6.65;;;17.80;85.40;;;;;;5016187;28;20022;-64
2022/05/08 00:43:31;;;;;;;9.18;6.13;;;17.80;85.50;;;;;;5016383;28;20076;-64
2022/05/08 00:45:56;;;;;;;8.30;5.70;;;17.80;85.50;;;;;;5015735;28;20513;-63
2022/05/08 00:48:22;;;;;;;8.50;5.90;;;17.80;85.50;;;;;;5015744;28;20101;-65
2022/05/08 00:50:50;;;;;;;9.35;6.18;;;17.80;85.40;;;;;;5015961;28;20030;-65
2022/05/08 00:53:15;;;;;;;8.27;5.93;;;17.80;85.50;;;;;;5015806;28;20021;-65
2022/05/08 00:55:41;;;;;;;9.10;6.30;;;17.80;85.50;;;;;;5015724;28;20026;-64
2022/05/08 00:58:07;;;;;;;9.77;6.47;;;17.80;85.20;;;;;;5015844;28;20026;-66
2022/05/08 01:00:33;;;;;;;8.77;6.28;;;17.80;85.30;;;;;;5016054;28;20486;-64
2022/05/08 01:02:59;;;;;;;8.05;6.07;;;17.80;85.20;;;;;;5015232;28;20034;-63
2022/05/08 01:05:24;;;;;;;10.18;6.68;;;17.70;85.30;;;;;;5015589;28;20029;-63
2022/05/08 01:07:50;;;;;;;10.38;6.70;;;17.70;85.40;;;;;;5015439;28;20022;-63
2022/05/08 01:10:16;;;;;;;9.43;6.35;;;17.70;85.20;;;;;;5015742;28;20499;-62
2022/05/08 01:12:44;;;;;;;8.27;6.25;;;17.70;85.10;;;;;;5015590;28;20036;-63
2022/05/08 01:15:20;;;;;;;10.15;6.40;;;17.60;85.20;;;;;;5015436;28;20030;-63
2022/05/08 01:17:47;;;;;;;14.15;6.88;;;17.70;85.10;;;;;;5015504;28;20033;-63
2022/05/08 01:20:13;;;;;;;10.30;6.47;;;17.70;85.10;;;;;;5015410;28;20022;-63
2022/05/08 01:22:39;;;;;;;11.20;6.82;;;17.70;85.20;;;;;;5015159;28;20491;-62
2022/05/08 01:25:05;;;;;;;10.48;6.53;;;17.70;85.10;;;;;;5015165;28;20025;-62
2022/05/08 01:27:30;;;;;;;9.85;6.78;;;17.70;84.90;;;;;;5015108;28;20394;-62
2022/05/08 01:29:57;;;;;;;11.25;7.05;;;17.60;85.10;;;;;;5014966;28;20093;-61
2022/05/08 01:32:22;;;;;;;9.77;6.30;;;17.60;85.00;;;;;;5014847;28;20468;-59
2022/05/08 01:34:48;;;;;;;8.82;6.05;;;17.60;84.50;;;;;;5015105;28;20046;-63
2022/05/08 01:37:13;;;;;;;8.02;6.53;;;17.60;84.40;;;;;;5015168;28;20376;-62
2022/05/08 01:39:39;;;;;;;8.40;5.43;;;17.60;84.00;;;;;;5015181;28;20026;-63
2022/05/08 01:42:06;;;;;;;10.43;6.03;;;17.60;83.60;;;;;;5014813;28;20554;-61
2022/05/08 01:44:32;;;;;;;7.15;6.05;;;17.60;83.40;;;;;;5013492;28;20022;-63
2022/05/08 01:49:43;;;;;;;9.32;5.38;;;17.50;83.40;;;;;;5014880;28;20044;-63
2022/05/08 01:52:09;;;;;;;9.25;5.55;;;17.50;82.70;;;;;;5014653;28;20117;-63
2022/05/08 01:54:35;;;;;;;9.57;5.68;;;17.40;82.70;;;;;;5014658;28;20102;-63
2022/05/08 01:57:00;;;;;;;9.48;5.60;;;17.40;82.50;;;;;;5014513;28;20038;-65
2022/05/08 01:59:26;;;;;;;9.93;5.95;;;17.40;82.40;;;;;;5014375;28;20030;-65
2022/05/08 02:01:52;;;;;;;8.35;5.68;;;17.40;82.40;;;;;;5014452;28;20038;-62
2022/05/08 02:04:18;;;;;;;8.50;5.15;;;17.40;82.60;;;;;;5014364;28;20034;-63
2022/05/08 02:06:45;;;;;;;8.48;5.70;;;17.40;82.10;;;;;;5014555;28;20471;-63
2022/05/08 02:09:10;;;;;;;8.73;5.55;;;17.40;82.10;;;;;;5014315;28;20022;-61
2022/05/08 02:11:36;;;;;;;8.48;5.68;;;17.30;82.30;;;;;;5014198;28;20018;-62
2022/05/08 02:14:06;;;;;;;7.95;5.15;;;17.30;82.30;;;;;;5006964;28;20468;-63
2022/05/08 02:16:31;;;;;;;6.25;5.07;;;17.30;82.10;;;;;;5000039;28;20050;-63
2022/05/08 02:18:57;;;;;;;8.40;5.75;;;17.30;82.10;;;;;;4993038;28;20116;-61
2022/05/08 02:21:23;;;;;;;8.90;5.55;;;17.30;82.20;;;;;;4994333;28;20480;-62
2022/05/08 02:23:49;;;;;;;10.18;5.88;;;17.20;82.10;;;;;;4994450;28;20027;-62
2022/05/08 02:26:15;;;;;;;12.80;5.90;;;17.30;82.20;;;;;;4994284;28;20034;-63
2022/05/08 02:28:40;;;;;;;7.00;5.50;;;17.20;82.20;;;;;;4994076;28;20057;-62
2022/05/08 02:31:06;;;;;;;8.85;6.00;;;17.20;82.50;;;;;;4994469;28;20027;-62
2022/05/08 02:33:33;;;;;;;8.85;5.32;;;17.10;82.30;;;;;;4994263;28;20038;-62
2022/05/08 02:35:58;;;;;;;8.23;5.28;;;17.10;82.50;;;;;;4993202;28;20510;-62
2022/05/08 02:38:25;;;;;;;8.27;5.68;;;17.10;82.50;;;;;;4993057;28;20027;-63
2022/05/08 02:40:51;;;;;;;8.43;6.05;;;17.10;82.40;;;;;;4994379;28;20435;-62
2022/05/08 02:43:20;;;;;;;8.15;5.70;;;17.10;82.40;;;;;;4992900;28;20042;-62
2022/05/08 02:45:46;;;;;;;9.63;6.63;;;17.00;82.60;;;;;;4994093;28;20396;-63
2022/05/08 02:48:12;;;;;;;10.15;6.30;;;17.10;82.70;;;;;;4994153;28;20084;-63
2022/05/08 02:50:38;;;;;;;8.70;6.07;;;17.10;82.70;;;;;;4994042;28;20097;-63
2022/05/08 02:53:03;;;;;;;8.45;7.38;;;17.00;82.50;;;;;;4994044;28;20026;-63
2022/05/08 03:00:57;;;;;;;9.75;6.65;;;17.00;82.50;;;;;;4993842;28;20403;-63
2022/05/08 03:03:23;;;;;;;8.82;6.45;;;17.00;82.70;;;;;;4993807;28;20030;-63
2022/05/08 03:05:49;;;;;;;8.90;6.78;;;17.00;82.60;;;;;;4993859;28;20034;-62
2022/05/08 03:08:15;;;;;;;10.18;7.03;;;16.90;82.60;;;;;;4993800;28;20022;-63
2022/05/08 03:11:27;;;;;;;10.63;7.45;;;16.90;82.70;;;;;;5010492;28;20021;-62
2022/05/08 03:13:27;;;;;;;8.85;6.57;;;16.90;82.60;;;;;;5012522;28;20119;-64
2022/05/08 03:15:53;;;;;;;7.35;6.20;;;16.90;82.70;;;;;;5006475;28;20069;-64
2022/05/08 03:18:19;;;;;;;7.78;6.60;;;16.90;82.70;;;;;;5001278;28;20065;-64
2022/05/08 03:20:44;;;;;;;11.45;6.97;;;16.90;82.60;;;;;;4997231;28;20027;-64
2022/05/08 03:23:10;;;;;;;9.45;6.90;;;16.80;82.50;;;;;;4993433;28;20057;-65
2022/05/08 03:25:36;;;;;;;8.30;7.00;;;16.80;82.60;;;;;;5002166;28;20553;-64
2022/05/08 03:28:03;;;;;;;9.80;6.88;;;16.80;82.70;;;;;;5012716;28;20495;-63
2022/05/08 03:30:28;;;;;;;9.10;6.45;;;16.80;82.70;;;;;;5012624;28;20022;-63
2022/05/08 03:32:56;;;;;;;10.07;6.85;;;16.80;82.60;;;;;;5012684;28;20026;-64
2022/05/08 03:35:22;;;;;;;9.38;7.32;;;16.70;82.70;;;;;;5012643;28;20018;-64
2022/05/08 03:37:47;;;;;;;9.45;7.00;;;16.80;82.60;;;;;;5012991;28;20476;-64
2022/05/08 03:40:13;;;;;;;8.90;6.65;;;16.70;82.80;;;;;;5012882;28;20531;-63
2022/05/08 03:42:38;;;;;;;9.57;6.38;;;16.80;82.70;;;;;;5012529;28;20487;-63
2022/05/08 03:45:04;;;;;;;10.93;7.05;;;16.70;82.70;;;;;;5012496;28;20025;-63
2022/05/08 03:47:30;;;;;;;9.57;6.80;;;16.70;82.80;;;;;;5009611;28;20037;-64
2022/05/08 03:49:56;;;;;;;11.18;7.38;;;16.70;82.80;;;;;;5012785;28;20018;-64
2022/05/08 03:52:21;;;;;;;8.80;6.65;;;16.60;82.60;;;;;;5012712;28;20594;-64
2022/05/08 03:54:47;;;;;;;9.48;7.45;;;16.60;83.00;;;;;;5012398;28;20033;-64
2022/05/08 03:57:12;;;;;;;13.65;7.80;;;16.70;82.90;;;;;;5003064;28;20061;-64
2022/05/08 03:59:38;;;;;;;10.45;7.55;;;16.70;82.90;;;;;;5006953;28;20026;-64
2022/05/08 04:02:03;;;;;;;10.23;7.55;;;16.60;82.80;;;;;;5012261;28;20057;-62
2022/05/08 04:04:29;;;;;;;10.32;7.63;;;16.60;82.90;;;;;;5012451;28;20087;-64
2022/05/08 04:06:54;;;;;;;9.07;7.47;;;16.60;82.80;;;;;;5013563;28;20022;-65
2022/05/08 04:09:20;;;;;;;10.10;6.72;;;16.60;82.70;;;;;;5015487;28;20026;-63
2022/05/08 04:11:45;;;;;;;9.65;7.00;;;16.60;82.70;;;;;;5016310;28;20026;-64
2022/05/08 04:14:12;;;;;;;9.75;7.28;;;16.60;82.80;;;;;;5014871;28;20018;-64
2022/05/08 04:16:37;;;;;;;9.50;6.85;;;16.60;82.70;;;;;;5015009;28;20441;-63
2022/05/08 04:19:03;;;;;;;10.38;6.85;;;16.60;83.00;;;;;;5015919;28;20018;-64
2022/05/08 04:21:29;;;;;;;10.60;7.20;;;16.60;82.90;;;;;;5015403;28;20395;-64
2022/05/08 04:26:38;;;;;;;10.10;7.22;;;16.60;82.70;;;;;;5000907;28;20049;-63
2022/05/08 04:29:04;;;;;;;9.15;6.88;;;16.60;82.60;;;;;;5013372;28;20030;-63
2022/05/08 04:31:30;;;;;;;10.75;7.45;;;16.50;82.90;;;;;;5014864;28;20076;-63
2022/05/08 04:33:55;;;;;;;13.55;7.32;;;16.50;83.00;;;;;;5016107;28;20053;-64
2022/05/08 04:36:22;;;;;;;18.10;8.07;;;16.50;82.70;;;;;;5016756;28;20487;-64
2022/05/08 04:38:48;;;;;;;11.07;7.22;;;16.50;82.70;;;;;;5032943;28;20109;-64
2022/05/08 04:41:13;;;;;;;10.30;7.25;;;16.50;82.70;;;;;;5018479;28;20037;-64
2022/05/08 04:43:39;;;;;;;11.93;7.53;;;16.60;82.80;;;;;;5015676;28;20032;-64
2022/05/08 04:46:04;;;;;;;11.55;7.13;;;16.50;82.60;;;;;;5009423;28;20038;-61
2022/05/08 04:48:30;;;;;;;12.18;7.88;;;16.50;82.70;;;;;;5021890;28;20026;-63
2022/05/08 04:50:55;;;;;;;10.43;7.57;;;16.50;82.40;;;;;;5015538;28;20463;-63
2022/05/08 04:53:21;;;;;;;9.88;7.45;;;16.50;82.50;;;;;;5014798;28;20025;-64
2022/05/08 04:55:47;;;;;;;9.70;7.30;;;16.50;82.60;;;;;;5016399;28;20411;-64
2022/05/08 04:58:12;;;;;;;9.95;7.00;;;16.50;82.40;;;;;;5013439;28;20490;-62
2022/05/08 05:00:38;;;;;;;9.27;7.38;;;16.40;82.40;;;;;;5012815;28;20072;-63
2022/05/08 05:03:04;;;;;;;10.43;7.57;;;16.40;82.50;;;;;;5014971;28;20471;-63
2022/05/08 05:05:29;;;;;;;10.38;7.50;;;16.30;82.60;;;;;;5015044;28;20026;-61
2022/05/08 05:07:55;;;;;;;13.65;8.18;;;16.40;82.70;;;;;;5015078;28;20034;-63
2022/05/08 05:10:21;;;;;;;12.00;8.40;;;16.40;82.50;;;;;;5015402;28;20025;-62
2022/05/08 05:12:47;;;;;;;13.75;8.00;;;16.30;82.40;;;;;;5015415;28;20149;-64
2022/05/08 05:15:12;;;;;;;12.88;7.68;;;16.30;82.70;;;;;;5015342;28;20096;-65
2022/05/08 05:17:38;;;;;;;10.63;7.38;;;16.30;82.50;;;;;;5014905;28;20435;-63
2022/05/08 05:20:05;;;;;;;10.10;7.65;;;16.30;82.40;;;;;;5014793;28;20029;-63
2022/05/08 05:22:30;;;;;;;13.05;8.20;;;16.40;82.30;;;;;;5014568;28;20088;-62
2022/05/08 05:24:59;;;;;;;10.88;8.20;;;16.30;81.90;;;;;;5015193;28;20030;-65
2022/05/08 05:27:25;;;;;;;13.75;7.68;;;16.30;82.60;;;;;;5014780;28;20450;-65
2022/05/08 05:29:52;;;;;;;14.35;8.13;;;16.30;82.00;;;;;;5015257;28;20468;-64
2022/05/08 05:32:17;;;;;;;9.95;7.10;;;16.40;81.60;;;;;;5014912;28;20538;-65
2022/05/08 05:34:43;;;;;;;11.40;6.82;;;16.30;81.50;;;;;;5013749;28;20061;-65
2022/05/08 05:37:08;;;;;;;12.07;7.05;;;16.30;81.40;;;;;;5014701;28;20464;-60
2022/05/08 05:39:34;;;;;;;10.98;7.28;;;16.30;81.30;;;;;;5014869;28;20095;-64
2022/05/08 05:42:00;;;;;;;11.00;7.55;;;16.30;81.00;;;;;;5014837;28;20054;-64
2022/05/08 05:44:26;;;;;;;8.68;6.60;;;16.30;81.00;;;;;;5014879;28;20026;-66
2022/05/08 05:49:38;;;;;;;16.08;7.65;;;16.30;80.70;;;;;;5014800;28;20029;-63
2022/05/08 05:52:05;;;;;;;10.80;7.28;;;16.30;80.40;;;;;;5014557;28;20029;-63
2022/05/08 05:54:31;;;;;;;13.02;7.32;;;16.30;80.30;;;;;;5014738;28;20096;-63
2022/05/08 05:56:57;;;;;;;12.20;6.43;;;16.40;80.40;;;;;;5014667;28;20455;-62
2022/05/08 05:59:22;;;;;;;10.98;6.85;;;16.30;80.20;;;;;;5014546;28;20037;-63
2022/05/08 06:01:48;;;;;;;15.10;7.63;;;16.40;79.60;;;;;;5014725;28;20460;-62
2022/05/08 06:04:14;;;;;;;13.80;6.68;;;16.40;79.70;;;;;;5014156;28;20026;-62
2022/05/08 06:06:39;;;;;;;12.38;6.78;;;16.40;79.40;;;;;;5014321;28;20018;-63
2022/05/08 06:09:05;;;;;;;13.77;7.07;;;16.40;78.90;;;;;;5014488;28;20386;-63
2022/05/08 06:11:31;;;;;;;10.77;5.78;;;16.30;78.50;;;;;;5014509;28;20049;-62
2022/05/08 06:13:56;;;;;;;16.88;6.82;;;16.30;78.50;;;;;;5014382;28;20024;-63
2022/05/08 06:16:22;;;;;;;13.25;6.63;;;16.30;78.20;;;;;;5014335;28;20029;-63
2022/05/08 06:18:47;;;;;;;11.88;6.00;;;16.30;78.20;;;;;;5014129;28;20044;-63
2022/05/08 06:21:13;;;;;;;13.23;6.57;;;16.40;77.90;;;;;;5014022;28;20398;-63
2022/05/08 06:23:38;;;;;;;11.63;6.18;;;16.40;77.80;;;;;;5014194;28;20087;-63
2022/05/08 06:26:04;;;;;;;9.90;6.55;;;16.40;77.90;;;;;;5014064;28;20036;-63
2022/05/08 06:28:31;;;;;;;10.75;6.55;;;16.40;77.70;;;;;;5013728;28;20034;-64
2022/05/08 06:30:56;;;;;;;10.88;6.45;;;16.40;77.70;;;;;;5013592;28;20157;-64
2022/05/08 06:33:22;;;;;;;13.73;7.22;;;16.30;77.70;;;;;;5014041;28;20057;-63
2022/05/08 06:35:47;;;;;;;13.45;6.53;;;16.30;77.80;;;;;;5013640;28;20033;-63
2022/05/08 06:38:13;;;;;;;12.45;6.47;;;16.30;77.70;;;;;;5013809;28;20029;-63
2022/05/08 06:40:39;;;;;;;16.27;7.10;;;16.30;77.60;;;;;;5013832;28;20105;-63
2022/05/08 06:43:06;;;;;;;14.73;6.28;;;16.30;77.40;;;;;;5013834;28;20069;-63
2022/05/08 06:45:32;;;;;;;11.98;6.32;;;16.40;77.40;;;;;;5013533;28;20076;-63
2022/05/08 06:47:58;;;;;;;12.48;6.32;;;16.40;77.60;;;;;;5013715;28;20415;-61
2022/05/08 06:50:23;;;;;;;15.55;6.45;;;16.30;77.70;;;;;;5013473;28;20033;-60
2022/05/08 06:52:49;;;;;;;15.98;6.45;;;16.30;78.00;;;;;;5013720;28;20022;-63
2022/05/08 06:55:15;;;;;;;11.35;5.82;;;16.30;78.00;;;;;;5013512;28;20468;-63
2022/05/08 06:57:40;;;;;;;17.50;7.03;;;16.30;77.80;;;;;;5013518;28;20439;-64
2022/05/08 07:02:50;;;;;;;14.35;6.10;;;16.50;77.70;;;;;;5013590;28;20065;-64
2022/05/08 07:05:16;;;;;;;15.90;5.97;;;16.50;77.10;;;;;;5013237;28;20026;-62
2022/05/08 07:07:42;;;;;;;13.48;6.20;;;16.50;77.10;;;;;;5013464;28;20033;-63
2022/05/08 07:10:08;;;;;;;13.50;5.35;;;16.50;77.20;;;;;;5013405;28;20029;-63
2022/05/08 07:12:36;;;;;;;16.55;6.72;;;16.50;77.10;;;;;;5013399;28;20080;-63
2022/05/08 07:15:03;;;;;;;14.10;6.18;;;16.50;76.70;;;;;;5013356;28;20356;-63
2022/05/08 07:17:29;;;;;;;15.73;5.95;;;16.50;76.70;;;;;;5013526;28;20018;-60
2022/05/08 07:19:55;;;;;;;12.82;5.85;;;16.60;77.10;;;;;;5012889;28;20097;-63
2022/05/08 07:22:21;;;;;;;14.68;5.88;;;16.60;76.70;;;;;;5013149;28;20119;-65
2022/05/08 07:24:47;;;;;;;15.77;5.15;;;16.50;76.00;;;;;;5013229;28;20065;-64
2022/05/08 07:27:12;;;;;;;13.80;5.30;;;16.60;76.80;;;;;;5013042;28;20487;-61
2022/05/08 07:29:41;;;;;;;16.17;5.18;;;16.60;76.60;;;;;;5013010;28;20041;-66
2022/05/08 07:32:07;;;;;;;15.50;6.25;;;16.70;76.30;;;;;;5013285;28;20092;-64
2022/05/08 07:37:17;;;;;;;16.92;5.93;;;16.70;76.90;;;;;;5013235;28;20037;-64
2022/05/08 07:39:42;;;;;;;19.90;5.95;;;16.80;75.90;;;;;;5012992;28;20022;-64
2022/05/08 07:42:08;;;;;;;13.45;4.90;;;16.80;76.00;;;;;;5016589;28;20030;-64
2022/05/08 07:44:34;;;;;;;13.43;5.50;;;16.90;75.80;;;;;;5017273;28;20391;-63
2022/05/08 07:47:00;;;;;;;15.50;5.68;;;16.90;75.10;;;;;;5016342;28;20029;-58
2022/05/08 07:49:26;;;;;;;13.15;5.30;;;16.90;75.20;;;;;;5012889;28;20097;-63
2022/05/08 07:51:52;;;;;;;13.13;5.53;;;16.90;75.20;;;;;;5014797;28;20034;-58
2022/05/08 07:54:17;;;;;;;16.60;5.10;;;17.00;75.30;;;;;;5014786;28;20046;-62
2022/05/08 07:56:43;;;;;;;14.68;5.28;;;17.10;75.30;;;;;;5016362;28;20468;-60
2022/05/08 07:59:09;;;;;;;13.70;5.78;;;17.10;75.30;;;;;;5016754;28;20482;-63
2022/05/08 08:01:34;;;;;;;16.58;5.38;;;17.20;74.50;;;;;;5016559;28;20045;-64
2022/05/08 08:04:01;;;;;;;15.85;5.00;;;17.30;73.90;;;;;;5015363;28;20022;-62
2022/05/08 08:06:27;;;;;;;16.60;5.43;;;17.30;72.70;;;;;;5014334;28;20455;-61
2022/05/08 08:08:54;;;;;;;14.35;5.22;;;17.40;72.30;;;;;;5016411;28;20593;-64
2022/05/08 08:11:20;;;;;;;11.32;5.13;;;17.40;71.80;;;;;;5015663;28;20018;-63
2022/05/08 08:13:46;;;;;;;17.88;5.38;;;17.40;71.60;;;;;;5016435;28;20058;-58
2022/05/08 08:16:12;;;;;;;15.45;5.22;;;17.40;71.90;;;;;;5014534;28;20018;-64
2022/05/08 08:18:42;;;;;;;12.32;4.90;;;17.50;72.10;;;;;;5019259;28;20037;-59
2022/05/08 08:21:13;;;;;;;15.43;4.90;;;17.50;71.70;;;;;;5028268;28;20052;-58
2022/05/08 08:23:40;;;;;;;11.50;4.80;;;17.60;70.70;;;;;;4996798;28;20399;-60
2022/05/08 08:26:06;;;;;;;15.82;5.03;;;17.60;70.90;;;;;;5014962;28;20022;-59
2022/05/08 08:28:31;;;;;;;9.80;4.25;;;17.60;71.10;;;;;;5017555;28;20544;-63
2022/05/08 08:30:57;;;;;;;14.80;4.43;;;17.70;71.00;;;;;;5023327;28;20025;-64
2022/05/08 08:33:23;;;;;;;12.32;4.38;;;17.70;70.40;;;;;;5025063;28;20079;-62
2022/05/08 08:35:49;;;;;;;10.75;4.63;;;17.70;69.00;;;;;;5027137;28;20034;-63
2022/05/08 08:38:14;;;;;;;12.27;3.83;;;17.80;68.00;;;;;;5021842;28;20022;-64
2022/05/08 08:40:42;;;;;;;13.63;4.72;;;17.80;67.80;;;;;;5024570;28;20022;-64
2022/05/08 08:43:11;;;;;;;12.13;4.00;;;17.80;67.40;;;;;;5013719;28;20034;-62
2022/05/08 08:48:34;;;;;;;13.38;4.45;;;17.90;67.90;;;;;;5015056;28;20118;-64
2022/05/08 08:51:01;;;;;;;9.23;3.78;;;17.90;67.70;;;;;;5028308;28;20117;-65
2022/05/08 08:53:28;;;;;;;10.63;4.18;;;18.00;65.70;;;;;;5013525;28;20152;-64
2022/05/08 08:55:54;;;;;;;16.27;5.18;;;18.00;66.70;;;;;;5014918;28;20095;-62
2022/05/08 08:58:21;;;;;;;14.57;4.50;;;17.90;68.20;;;;;;5013340;28;20022;-64
2022/05/08 09:00:47;;;;;;;12.02;4.00;;;17.90;68.90;;;;;;5013377;28;20116;-59
2022/05/08 09:03:27;;;;;;;13.88;5.03;;;18.00;67.60;;;;;;5013031;28;20088;-62
2022/05/08 09:05:56;;;;;;;12.27;4.60;;;18.00;68.60;;;;;;5012378;28;20033;-63
2022/05/08 09:08:33;;;;;;;12.32;4.88;;;18.00;68.80;;;;;;5008923;28;20026;-61
2022/05/08 09:11:00;;;;;;;12.55;4.88;;;18.10;69.10;;;;;;5011983;28;20041;-63
2022/05/08 09:13:27;;;;;;;14.90;4.53;;;18.10;68.70;;;;;;5013335;28;20030;-61
2022/05/08 09:16:07;;;;;;;10.75;4.35;;;18.10;69.10;;;;;;5008099;28;20021;-65
2022/05/08 09:18:46;;;;;;;12.23;4.30;;;18.10;69.30;;;;;;5002134;28;20480;-64
2022/05/08 09:24:12;;;;;;;15.77;4.93;;;18.20;66.90;;;;;;5008260;28;20537;-58
2022/05/08 09:26:38;;;;;;;12.27;4.18;;;18.10;67.60;;;;;;5013745;28;20091;-63
2022/05/08 09:29:05;;;;;;;14.13;4.40;;;18.20;66.90;;;;;;5011539;28;20479;-58
2022/05/08 09:31:41;;;;;;;14.68;4.57;;;18.10;66.90;;;;;;5019228;28;20025;-59
2022/05/08 09:34:08;;;;;;;15.23;4.57;;;18.20;66.90;;;;;;5027671;28;20025;-66
2022/05/08 09:36:33;;;;;;;13.80;3.85;;;18.20;67.10;;;;;;5004454;28;20018;-59
2022/05/08 09:39:00;;;;;;;20.10;4.18;;;18.30;66.40;;;;;;5011540;28;20041;-59
2022/05/08 09:41:29;;;;;;;11.27;3.78;;;18.30;67.00;;;;;;5012835;28;20499;-60
2022/05/08 09:44:08;;;;;;;9.10;3.30;;;18.30;64.60;;;;;;5013664;28;20057;-61
2022/05/08 09:46:45;;;;;;;9.38;3.45;;;18.30;63.20;;;;;;5006898;28;20034;-61
2022/05/08 09:49:20;;;;;;;11.05;4.13;;;18.30;63.70;;;;;;5007271;28;20032;-59
2022/05/08 09:51:47;;;;;;;13.30;4.10;;;18.20;63.30;;;;;;5010659;28;20087;-61
2022/05/08 09:54:17;;;;;;;12.07;4.32;;;18.20;63.80;;;;;;5006953;28;20037;-60
2022/05/08 09:56:44;;;;;;;12.50;3.30;;;18.20;63.70;;;;;;5010992;28;20546;-61
2022/05/08 09:59:11;;;;;;;11.38;3.50;;;18.20;64.50;;;;;;5010372;28;20076;-61
2022/05/08 10:01:40;;;;;;;9.10;2.97;;;18.30;62.10;;;;;;5005071;28;20022;-61
2022/05/08 10:04:06;;;;;;;10.70;3.45;;;18.30;62.00;;;;;;5005295;28;20660;-60
2022/05/08 10:06:36;;;;;;;12.02;3.13;;;18.30;62.10;;;;;;5014741;28;20105;-61
2022/05/08 10:14:34;;;;;;;9.38;2.90;;;18.30;61.80;;;;;;5015152;28;20072;-61
2022/05/08 10:17:06;;;;;;;10.27;3.47;;;18.30;62.60;;;;;;5016795;28;20077;-60
2022/05/08 10:19:32;;;;;;;5.78;2.08;;;18.30;61.00;;;;;;5007889;28;20104;-60
2022/05/08 10:22:09;;;;;;;10.82;2.65;;;18.30;61.30;;;;;;5005159;28;20149;-60
2022/05/08 10:24:39;;;;;;;7.72;2.72;;;18.30;60.30;;;;;;5008738;28;20117;-60
2022/05/08 10:27:41;;;;;;;8.20;2.58;;;18.40;60.10;;;;;;5013866;28;20478;-60
2022/05/08 10:30:06;;;;;;;6.50;2.17;;;18.40;59.90;;;;;;5009539;28;20045;-59
2022/05/08 10:32:32;;;;;;;6.95;1.75;;;18.40;58.40;;;;;;5011773;28;20498;-59
2022/05/08 10:35:13;;;;;;;7.72;2.08;;;18.40;58.90;;;;;;5019819;28;20064;-59
2022/05/08 10:37:51;;;;;;;7.73;1.80;;;18.40;61.30;;;;;;5010384;28;20030;-60
2022/05/08 10:40:23;;;;;;;10.30;2.72;;;18.40;58.90;;;;;;5011325;28;20030;-60
2022/05/08 10:42:50;;;;;;;7.28;1.85;;;18.40;58.60;;;;;;5011391;28;20040;-59
2022/05/08 10:45:31;;;;;;;9.45;1.92;;;18.40;59.20;;;;;;5020039;28;20017;-60
2022/05/08 10:47:58;;;;;;;14.23;2.42;;;18.40;61.40;;;;;;5020500;28;20037;-60
2022/05/08 10:50:23;;;;;;;6.82;1.63;;;18.50;60.00;;;;;;5018040;28;20430;-61
2022/05/08 10:52:50;;;;;;;9.50;2.67;;;18.40;59.60;;;;;;5015955;28;20026;-59
2022/05/08 10:55:17;;;;;;;7.30;1.88;;;18.50;58.30;;;;;;5026984;28;20479;-59
2022/05/08 10:57:48;;;;;;;8.63;2.10;;;18.50;58.80;;;;;;5012187;28;20030;-60
2022/05/08 11:00:18;;;;;;;8.73;2.35;;;18.50;60.50;;;;;;5010526;28;20046;-58
2022/05/08 11:02:52;;;;;;;9.10;1.98;;;18.50;58.00;;;;;;5024255;28;20060;-59
2022/05/08 11:05:21;;;;;;;8.50;2.35;;;18.50;57.70;;;;;;5032412;28;20032;-59
2022/05/08 11:07:58;;;;;;;7.47;1.75;;;18.50;56.90;;;;;;5001403;28;20112;-59
2022/05/08 11:10:31;;;;;;;10.88;1.70;;;18.50;57.10;;;;;;5012585;28;20084;-59
2022/05/08 11:13:10;;;;;;;5.43;1.90;;;18.50;57.00;;;;;;5012294;28;20087;-60
2022/05/08 11:15:45;;;;;;;8.15;1.92;;;18.60;58.30;;;;;;4995921;28;20026;-58
2022/05/08 11:18:16;;;;;;;8.70;2.20;;;18.60;57.90;;;;;;5006463;28;20026;-60
2022/05/08 11:21:02;;;;;;;4.67;1.83;;;18.60;57.60;;;;;;5009808;28;20060;-61
2022/05/08 11:23:36;;;;;;;5.72;1.40;;;18.60;56.60;;;;;;5015765;28;20305;-60
2022/05/08 11:26:06;;;;;;;6.97;1.60;;;18.60;58.20;;;;;;5013993;28;20072;-60
2022/05/08 11:28:33;;;;;;;7.32;1.67;;;18.70;57.00;;;;;;5006218;28;20037;-60
2022/05/08 11:30:59;;;;;;;7.18;1.55;;;18.70;56.40;;;;;;5007977;28;20026;-59
2022/05/08 11:36:26;;;;;;;8.38;1.38;;;18.70;57.60;;;;;;5012784;28;20037;-61
2022/05/08 11:39:04;;;;;;;6.63;1.77;;;18.70;56.90;;;;;;5019875;28;20021;-62
2022/05/08 11:41:34;;;;;;;10.88;1.60;;;18.80;57.10;;;;;;5009263;28;20025;-62
2022/05/08 11:44:02;;;;;;;4.85;1.65;;;18.80;59.00;;;;;;5011757;28;20040;-62
2022/05/08 11:46:37;;;;;;;3.88;1.27;;;18.80;57.00;;;;;;5010972;28;20390;-63
2022/05/08 11:49:19;;;;;;;5.60;2.15;;;18.80;56.80;;;;;;5015106;28;20108;-62
2022/05/08 11:51:47;;;;;;;6.88;1.92;;;18.80;56.70;;;;;;5008750;28;20069;-61
2022/05/08 11:54:18;;;;;;;5.70;1.70;;;18.80;57.80;;;;;;5013243;28;20475;-61
2022/05/08 11:56:44;;;;;;;7.65;1.83;;;18.80;57.50;;;;;;5018949;28;20028;-62
2022/05/08 11:59:21;;;;;;;6.82;1.58;;;18.80;58.50;;;;;;5019576;28;20146;-62
2022/05/08 12:01:49;;;;;;;6.30;1.52;;;18.90;57.90;;;;;;5009163;28;20029;-63
2022/05/08 12:04:32;;;;;;;5.07;1.55;;;18.90;55.70;;;;;;5007435;28;20029;-62
2022/05/08 12:07:10;;;;;;;6.03;1.48;;;18.80;55.80;;;;;;5010253;28;20480;-62
2022/05/08 12:09:51;;;;;;;3.15;1.08;;;18.80;55.60;;;;;;5006376;28;20049;-63
2022/05/08 12:12:28;;;;;;;6.97;1.50;;;18.80;53.90;;;;;;5008367;28;20072;-62
2022/05/08 12:14:59;;;;;;;6.65;1.58;;;18.80;56.10;;;;;;4998308;28;20480;-63
2022/05/08 12:17:26;;;;;;;5.07;1.70;;;18.90;57.40;;;;;;5006491;28;20060;-62
2022/05/08 12:19:53;;;;;;;6.30;1.83;;;18.90;57.80;;;;;;5018004;28;20467;-62
2022/05/08 12:22:25;;;;;;;5.03;1.10;;;19.00;56.60;;;;;;5014351;28;20033;-62
2022/05/08 12:24:55;;;;;;;6.47;1.60;;;19.00;56.20;;;;;;5010035;28;20030;-63
2022/05/08 12:27:21;;;;;;;3.78;1.60;;;19.00;57.00;;;;;;5024366;28;20030;-63
2022/05/08 12:29:47;;;;;;;7.80;1.50;;;19.00;57.20;;;;;;5006858;28;20037;-61
2022/05/08 12:32:14;;;;;;;6.60;1.17;;;19.00;56.90;;;;;;5016147;28;20387;-63
2022/05/08 12:34:41;;;;;;;11.52;2.00;;;19.00;56.10;;;;;;5009771;28;20431;-60
2022/05/08 12:37:08;;;;;;;6.13;1.88;;;19.00;56.90;;;;;;5003332;28;20033;-62
2022/05/08 12:39:33;;;;;;;8.60;1.45;;;19.00;57.70;;;;;;5012395;28;20108;-64
2022/05/08 12:41:59;;;;;;;4.53;1.13;;;19.00;58.20;;;;;;5011125;28;20167;-65
2022/05/08 12:44:24;;;;;;;7.30;1.58;;;19.10;56.80;;;;;;5016475;28;20072;-60
2022/05/08 12:46:51;;;;;;;5.78;1.20;;;19.10;56.30;;;;;;5022525;28;20026;-65
2022/05/08 12:49:17;;;;;;;9.02;2.17;;;19.10;57.00;;;;;;5016095;28;20163;-61
2022/05/08 12:51:43;;;;;;;8.32;1.55;;;19.10;57.60;;;;;;5025725;28;20106;-65
2022/05/08 12:54:09;;;;;;;6.00;1.48;;;19.10;56.90;;;;;;5024872;28;20094;-63
2022/05/08 12:56:35;;;;;;;6.10;1.52;;;19.10;55.70;;;;;;5022649;28;20025;-65
2022/05/08 13:01:46;;;;;;;6.07;1.30;;;19.10;55.50;;;;;;5010531;28;20049;-62
2022/05/08 13:04:12;;;;;;;5.93;1.42;;;19.10;55.60;;;;;;5011322;28;20033;-62
2022/05/08 13:06:38;;;;;;;6.28;1.63;;;19.10;56.50;;;;;;5024036;28;20053;-60
2022/05/08 13:09:06;;;;;;;7.70;2.10;;;19.10;57.20;;;;;;5027864;28;20479;-65
2022/05/08 13:11:32;;;;;;;6.78;1.67;;;19.20;56.60;;;;;;5019500;28;20022;-62
2022/05/08 13:13:58;;;;;;;10.25;1.60;;;19.20;56.50;;;;;;5025044;28;20029;-64
2022/05/08 13:16:24;;;;;;;6.40;1.63;;;19.20;57.40;;;;;;5019940;28;20016;-62
2022/05/08 13:18:50;;;;;;;9.25;2.10;;;19.20;57.80;;;;;;5012267;28;20026;-64